createdAt,value
2018-10-17T00:01:03.105Z,0
2018-10-17T00:02:11.108Z,0
2018-10-17T00:03:19.163Z,0
2018-10-17T00:04:27.227Z,0
2018-10-17T00:05:35.289Z,0
2018-10-17T00:06:43.346Z,0
2018-10-17T00:07:51.407Z,0
2018-10-17T00:08:59.469Z,0
2018-10-17T00:10:07.534Z,0
2018-10-17T00:11:15.598Z,0
2018-10-17T00:12:23.658Z,0
2018-10-17T00:13:31.726Z,0
2018-10-17T00:14:39.784Z,0
2018-10-17T00:15:47.844Z,0
2018-10-17T00:16:55.970Z,0
2018-10-17T00:18:03.963Z,0
2018-10-17T00:19:12.047Z,0
2018-10-17T00:20:20.088Z,0
2018-10-17T00:21:28.123Z,0
2018-10-17T00:22:36.214Z,0
2018-10-17T00:23:44.256Z,0
2018-10-17T00:24:52.357Z,0
2018-10-17T00:26:00.399Z,0
2018-10-17T00:27:08.419Z,0
2018-10-17T00:28:16.512Z,0
2018-10-17T00:29:24.572Z,0
2018-10-17T00:30:32.635Z,0
2018-10-17T00:31:40.710Z,0
2018-10-17T00:32:48.739Z,0
2018-10-17T00:33:56.817Z,0
2018-10-17T00:35:04.976Z,0
2018-10-17T00:36:12.948Z,0
2018-10-17T00:37:21.002Z,0
2018-10-17T00:38:29.058Z,0
2018-10-17T00:39:37.128Z,0
2018-10-17T00:40:45.183Z,0
2018-10-17T00:41:53.257Z,0
2018-10-17T00:43:01.332Z,0
2018-10-17T00:44:09.382Z,0
2018-10-17T00:45:17.458Z,0
2018-10-17T00:46:25.497Z,0
2018-10-17T00:47:33.560Z,0
2018-10-17T00:48:41.609Z,0
2018-10-17T00:49:49.678Z,0
2018-10-17T00:50:57.742Z,0
2018-10-17T00:52:05.811Z,0
2018-10-17T00:53:13.940Z,0
2018-10-17T00:54:21.931Z,0
2018-10-17T00:55:29.977Z,0
2018-10-17T00:56:38.024Z,0
2018-10-17T00:57:46.114Z,0
2018-10-17T00:58:54.186Z,0
2018-10-17T01:00:02.238Z,0
2018-10-17T01:01:10.354Z,0
2018-10-17T01:02:18.326Z,0
2018-10-17T01:03:26.420Z,0
2018-10-17T01:04:34.480Z,0
2018-10-17T01:05:42.534Z,0
2018-10-17T03:11:00.104Z,0
2018-10-17T03:11:37.312Z,0
2018-10-17T03:12:45.363Z,0
2018-10-17T03:13:53.430Z,0
2018-10-17T03:15:01.494Z,0
2018-10-17T03:16:09.564Z,0
2018-10-17T03:17:17.685Z,0
2018-10-17T03:18:25.669Z,0
2018-10-17T03:19:33.740Z,0
2018-10-17T03:20:41.800Z,0
2018-10-17T03:21:49.844Z,0
2018-10-17T03:22:57.928Z,0
2018-10-17T03:24:05.976Z,0
2018-10-17T03:25:14.121Z,0
2018-10-17T03:26:22.100Z,0
2018-10-17T03:27:30.160Z,0
2018-10-17T03:28:38.194Z,0
2018-10-17T03:29:46.269Z,0
2018-10-17T03:30:54.446Z,0
2018-10-17T03:32:02.393Z,0
2018-10-17T03:33:10.465Z,0
2018-10-17T03:34:18.492Z,0
2018-10-17T03:35:26.593Z,0
2018-10-17T03:36:34.635Z,0
2018-10-17T03:37:42.695Z,0
2018-10-17T03:38:50.744Z,0
2018-10-17T03:39:58.791Z,0
2018-10-17T03:41:06.920Z,0
2018-10-17T03:42:14.939Z,0
2018-10-17T03:43:22.991Z,0
2018-10-17T03:44:31.064Z,0
2018-10-17T03:45:39.106Z,0
2018-10-17T03:46:47.194Z,0
2018-10-17T03:47:55.241Z,0
2018-10-17T03:49:03.325Z,0
2018-10-17T03:50:11.381Z,0
2018-10-17T03:51:19.431Z,0
2018-10-17T03:52:27.493Z,0
2018-10-17T03:53:35.544Z,0
2018-10-17T03:54:43.605Z,0
2018-10-17T03:55:51.668Z,0
2018-10-17T03:56:59.729Z,0
2018-10-17T03:58:07.780Z,0
2018-10-17T03:59:15.973Z,0
2018-10-17T04:00:23.913Z,0
2018-10-17T04:01:31.970Z,0
2018-10-17T04:02:40.047Z,0
2018-10-17T04:03:48.081Z,0
2018-10-17T04:04:56.204Z,0
2018-10-17T04:06:04.207Z,0
2018-10-17T04:07:12.370Z,0
2018-10-17T04:08:20.358Z,0
2018-10-17T04:09:28.362Z,0
2018-10-17T04:10:36.451Z,0
2018-10-17T04:11:44.511Z,0
2018-10-17T04:12:52.581Z,0
2018-10-17T04:14:00.630Z,0
2018-10-17T04:15:08.661Z,0
2018-10-17T04:16:16.750Z,0
2018-10-17T04:17:24.813Z,0
2018-10-17T04:18:32.882Z,0
2018-10-17T04:19:40.936Z,0
2018-10-17T04:20:49.046Z,0
2018-10-17T04:21:57.056Z,0
2018-10-17T04:23:05.175Z,0
2018-10-17T04:24:13.186Z,0
2018-10-17T04:25:21.249Z,0
2018-10-17T04:26:29.299Z,0
2018-10-17T04:27:37.379Z,0
2018-10-17T04:28:45.429Z,0
2018-10-17T04:29:53.498Z,0
2018-10-17T04:31:01.613Z,0
2018-10-17T04:32:09.614Z,0
2018-10-17T04:33:17.655Z,0
2018-10-17T04:34:25.738Z,0
2018-10-17T04:35:34.510Z,0
2018-10-17T04:36:41.833Z,0
2018-10-17T04:37:49.921Z,0
2018-10-17T04:38:57.966Z,0
2018-10-17T04:40:06.020Z,0
2018-10-17T04:41:14.180Z,0
2018-10-17T04:42:22.153Z,0
2018-10-17T04:43:30.226Z,0
2018-10-17T04:44:38.243Z,0
2018-10-17T04:45:46.322Z,0
2018-10-17T04:46:54.390Z,0
2018-10-17T04:48:02.444Z,0
2018-10-17T04:49:10.592Z,0
2018-10-17T04:50:18.541Z,0
2018-10-17T04:51:26.620Z,0
2018-10-17T04:52:35.429Z,0
2018-10-17T04:53:42.753Z,0
2018-10-17T04:54:50.995Z,0
2018-10-17T04:55:58.839Z,0
2018-10-17T04:57:06.954Z,0
2018-10-17T04:58:15.007Z,0
2018-10-17T04:59:23.053Z,0
2018-10-17T05:00:31.112Z,0
2018-10-17T05:01:39.289Z,0
2018-10-17T05:02:47.230Z,0
2018-10-17T05:03:55.288Z,0
2018-10-17T05:05:03.437Z,0
2018-10-17T05:06:11.417Z,0
2018-10-17T05:07:19.547Z,0
2018-10-17T05:08:27.532Z,0
2018-10-17T05:09:35.588Z,0
2018-10-17T05:10:43.660Z,0
2018-10-17T05:11:51.745Z,0
2018-10-17T05:12:59.818Z,0
2018-10-17T05:14:07.829Z,0
2018-10-17T05:15:15.958Z,0
2018-10-17T05:16:23.963Z,0
2018-10-17T05:17:32.798Z,4
2018-10-17T05:18:40.082Z,4
2018-10-17T05:19:48.132Z,0
2018-10-17T05:20:56.200Z,4
2018-10-17T05:22:04.274Z,8
2018-10-17T05:23:12.426Z,4
2018-10-17T05:24:20.391Z,8
2018-10-17T05:25:28.415Z,8
2018-10-17T05:26:36.508Z,12
2018-10-17T05:27:44.564Z,12
2018-10-17T05:28:52.673Z,20
2018-10-17T05:30:00.688Z,24
2018-10-17T05:31:08.800Z,32
2018-10-17T05:32:16.820Z,36
2018-10-17T05:33:24.861Z,40
2018-10-17T05:34:32.933Z,52
2018-10-17T05:35:40.977Z,60
2018-10-17T05:36:49.046Z,72
2018-10-17T05:37:57.238Z,88
2018-10-17T05:39:05.178Z,100
2018-10-17T05:40:13.235Z,112
2018-10-17T05:41:21.289Z,132
2018-10-17T05:42:29.447Z,152
2018-10-17T05:43:37.422Z,172
2018-10-17T05:44:45.464Z,196
2018-10-17T05:45:53.540Z,216
2018-10-17T05:47:01.647Z,244
2018-10-17T05:48:09.699Z,268
2018-10-17T05:49:17.722Z,292
2018-10-17T05:50:25.782Z,324
2018-10-17T05:51:33.853Z,352
2018-10-17T05:52:41.910Z,384
2018-10-17T05:53:49.962Z,420
2018-10-17T05:54:58.050Z,452
2018-10-17T05:56:06.090Z,488
2018-10-17T05:57:14.176Z,528
2018-10-17T05:58:22.208Z,568
2018-10-17T05:59:30.269Z,612
2018-10-17T06:00:38.301Z,656
2018-10-17T06:01:46.507Z,692
2018-10-17T06:02:54.452Z,732
2018-10-17T06:04:02.511Z,768
2018-10-17T06:05:10.620Z,804
2018-10-17T06:06:18.599Z,840
2018-10-17T06:07:26.690Z,876
2018-10-17T06:08:34.750Z,916
2018-10-17T06:09:42.814Z,960
2018-10-17T06:10:50.941Z,1000
2018-10-17T06:11:58.906Z,1036
2018-10-17T06:13:07.005Z,1080
2018-10-17T06:14:15.050Z,1120
2018-10-17T06:15:23.139Z,1160
2018-10-17T06:16:31.179Z,1196
2018-10-17T06:17:39.229Z,1240
2018-10-17T06:18:47.285Z,1276
2018-10-17T06:19:55.358Z,1316
2018-10-17T06:21:03.420Z,1356
2018-10-17T06:22:11.478Z,1392
2018-10-17T06:23:19.541Z,1432
2018-10-17T06:24:27.592Z,1476
2018-10-17T06:25:35.663Z,1532
2018-10-17T06:26:43.713Z,1604
2018-10-17T06:27:51.774Z,1840
2018-10-17T06:28:59.869Z,2120
2018-10-17T06:30:07.899Z,2304
2018-10-17T06:31:16.092Z,2420
2018-10-17T06:32:24.012Z,2516
2018-10-17T06:33:32.078Z,2360
2018-10-17T06:34:40.243Z,2212
2018-10-17T06:35:48.179Z,2452
2018-10-17T06:36:56.309Z,2752
2018-10-17T06:38:04.328Z,2776
2018-10-17T06:39:12.394Z,2028
2018-10-17T06:40:20.448Z,2076
2018-10-17T06:41:28.484Z,2000
2018-10-17T06:42:36.582Z,2176
2018-10-17T06:43:44.781Z,2280
2018-10-17T06:44:52.695Z,2232
2018-10-17T06:46:00.778Z,2188
2018-10-17T06:47:08.949Z,2620
2018-10-17T06:48:16.874Z,2828
2018-10-17T06:49:24.962Z,2620
2018-10-17T06:50:32.991Z,3324
2018-10-17T06:51:41.070Z,3340
2018-10-17T06:52:49.110Z,3344
2018-10-17T06:53:57.290Z,4140
2018-10-17T06:55:05.347Z,5012
2018-10-17T06:56:13.314Z,4308
2018-10-17T06:57:21.368Z,3948
2018-10-17T06:58:29.440Z,3248
2018-10-17T06:59:37.497Z,3388
2018-10-17T07:00:45.549Z,3544
2018-10-17T07:01:53.749Z,3332
2018-10-17T07:03:01.681Z,3896
2018-10-17T07:04:10.431Z,4252
2018-10-17T07:05:17.899Z,4524
2018-10-17T07:06:25.902Z,4908
2018-10-17T07:07:33.938Z,4588
2018-10-17T07:08:41.988Z,5116
2018-10-17T07:09:50.053Z,4060
2018-10-17T07:10:58.259Z,3780
2018-10-17T07:12:06.184Z,4876
2018-10-17T07:13:14.421Z,4188
2018-10-17T07:14:22.309Z,3144
2018-10-17T07:15:30.535Z,3364
2018-10-17T07:16:38.403Z,3404
2018-10-17T07:17:46.498Z,4132
2018-10-17T07:18:54.579Z,4928
2018-10-17T07:20:02.628Z,5836
2018-10-17T07:21:10.680Z,4960
2018-10-17T07:22:18.721Z,4584
2018-10-17T07:23:26.820Z,3432
2018-10-17T07:24:34.901Z,4876
2018-10-17T07:25:42.938Z,6428
2018-10-17T07:26:50.997Z,6532
2018-10-17T07:27:59.049Z,10400
2018-10-17T07:29:07.152Z,10468
2018-10-17T07:30:15.192Z,6204
2018-10-17T07:31:23.262Z,3104
2018-10-17T07:32:31.360Z,3200
2018-10-17T07:33:39.384Z,7316
2018-10-17T07:34:47.448Z,8524
2018-10-17T07:35:55.571Z,9780
2018-10-17T07:37:03.569Z,10464
2018-10-17T07:38:11.643Z,6028
2018-10-17T07:39:19.693Z,3684
2018-10-17T07:40:27.772Z,3324
2018-10-17T07:41:35.862Z,3184
2018-10-17T07:42:43.885Z,3080
2018-10-17T07:43:51.954Z,3032
2018-10-17T07:45:00.023Z,3028
2018-10-17T07:46:08.071Z,3032
2018-10-17T07:47:16.150Z,3048
2018-10-17T07:48:24.213Z,3048
2018-10-17T07:49:32.284Z,3052
2018-10-17T07:50:40.352Z,3048
2018-10-17T07:51:48.384Z,3052
2018-10-17T07:52:56.506Z,3080
2018-10-17T07:54:04.557Z,3096
2018-10-17T07:55:12.607Z,3088
2018-10-17T07:56:20.673Z,3088
2018-10-17T07:57:28.801Z,3084
2018-10-17T07:58:36.791Z,3084
2018-10-17T07:59:44.886Z,3084
2018-10-17T08:00:52.921Z,3092
2018-10-17T08:02:00.980Z,3092
2018-10-17T08:03:09.044Z,3096
2018-10-17T08:04:17.126Z,3100
2018-10-17T08:05:25.194Z,3108
2018-10-17T08:06:33.373Z,3112
2018-10-17T08:07:41.319Z,3124
2018-10-17T08:08:49.388Z,3128
2018-10-17T08:09:57.452Z,3128
2018-10-17T08:11:05.505Z,3136
2018-10-17T08:12:13.649Z,3136
2018-10-17T08:13:21.680Z,3144
2018-10-17T08:14:29.704Z,3148
2018-10-17T08:15:37.765Z,3152
2018-10-17T08:16:45.832Z,3152
2018-10-17T08:17:53.943Z,3152
2018-10-17T08:19:01.977Z,3152
2018-10-17T08:20:10.027Z,3160
2018-10-17T08:21:18.150Z,3160
2018-10-17T08:22:26.160Z,3160
2018-10-17T08:23:34.230Z,3160
2018-10-17T08:24:42.292Z,3164
2018-10-17T08:25:50.355Z,3156
2018-10-17T08:26:58.386Z,3152
2018-10-17T08:28:06.490Z,3148
2018-10-17T08:29:14.541Z,3148
2018-10-17T08:30:22.613Z,3144
2018-10-17T08:31:30.884Z,3148
2018-10-17T08:32:40.551Z,3148
2018-10-17T08:33:48.594Z,3148
2018-10-17T08:34:56.885Z,3152
2018-10-17T08:36:05.111Z,3148
2018-10-17T08:37:51.991Z,3144
2018-10-17T08:38:59.509Z,3140
2018-10-17T08:41:17.100Z,3136
2018-10-17T08:42:25.136Z,3132
2018-10-17T08:43:33.182Z,3132
2018-10-17T08:44:41.249Z,3128
2018-10-17T08:45:49.313Z,3120
2018-10-17T08:46:57.371Z,3124
2018-10-17T08:48:05.447Z,3124
2018-10-17T08:49:13.513Z,3128
2018-10-17T08:50:21.585Z,3132
2018-10-17T08:51:29.638Z,3136
2018-10-17T08:52:37.707Z,3144
2018-10-17T08:53:45.765Z,3144
2018-10-17T08:54:53.832Z,3152
2018-10-17T08:56:07.801Z,3156
2018-10-17T08:57:15.828Z,3156
2018-10-17T08:58:23.885Z,3160
2018-10-17T08:59:31.952Z,3164
2018-10-17T09:00:40.020Z,3168
2018-10-17T09:01:48.064Z,3172
2018-10-17T09:02:56.145Z,3180
2018-10-17T09:04:04.205Z,3184
2018-10-17T09:05:12.278Z,3184
2018-10-17T09:06:20.587Z,3184
2018-10-17T09:07:28.470Z,3188
2018-10-17T09:08:36.467Z,3184
2018-10-17T09:09:44.537Z,3176
2018-10-17T09:10:52.608Z,3176
2018-10-17T09:12:00.709Z,3172
2018-10-17T09:13:08.711Z,3176
2018-10-17T09:14:16.918Z,3172
2018-10-17T09:15:24.878Z,3180
2018-10-17T09:16:32.972Z,3180
2018-10-17T09:17:41.009Z,3180
2018-10-17T09:18:49.056Z,3184
2018-10-17T09:19:57.513Z,3192
2018-10-17T09:21:05.477Z,3188
2018-10-17T09:22:13.705Z,3188
2018-10-17T09:23:21.341Z,3192
2018-10-17T09:24:29.406Z,3188
2018-10-17T09:25:37.544Z,3184
2018-10-17T09:26:45.538Z,3188
2018-10-17T09:27:53.626Z,3188
2018-10-17T09:29:01.676Z,3184
2018-10-17T09:30:09.824Z,3184
2018-10-17T09:31:17.797Z,3184
2018-10-17T09:32:25.867Z,3188
2018-10-17T09:33:33.938Z,3192
2018-10-17T09:34:42.008Z,3192
2018-10-17T09:35:50.178Z,3200
2018-10-17T09:36:58.131Z,3204
2018-10-17T09:38:06.218Z,3204
2018-10-17T09:39:14.266Z,3204
2018-10-17T09:40:22.331Z,3204
2018-10-17T09:41:30.405Z,3204
2018-10-17T09:42:38.445Z,3204
2018-10-17T09:43:46.547Z,3204
2018-10-17T09:44:54.596Z,3200
2018-10-17T09:46:02.750Z,3196
2018-10-17T09:47:10.731Z,3196
2018-10-17T09:48:18.895Z,3188
2018-10-17T09:49:26.866Z,3188
2018-10-17T09:50:34.937Z,3184
2018-10-17T09:51:43.017Z,3180
2018-10-17T09:52:51.074Z,3176
2018-10-17T09:53:59.157Z,3176
2018-10-17T09:55:07.197Z,3172
2018-10-17T09:56:15.275Z,3168
2018-10-17T09:57:23.350Z,3164
2018-10-17T09:58:31.535Z,3168
2018-10-17T09:59:39.483Z,3168
2018-10-17T10:00:47.555Z,3168
2018-10-17T10:01:55.608Z,3172
2018-10-17T10:03:03.683Z,3168
2018-10-17T10:04:11.846Z,3168
2018-10-17T10:05:19.825Z,3164
2018-10-17T10:06:27.882Z,3160
2018-10-17T10:07:35.939Z,3156
2018-10-17T10:08:44.026Z,3156
2018-10-17T10:09:52.137Z,3160
2018-10-17T10:11:00.160Z,3160
2018-10-17T10:12:08.325Z,3160
2018-10-17T10:13:16.526Z,3152
2018-10-17T10:14:25.186Z,3148
2018-10-17T10:15:33.232Z,3136
2018-10-17T10:16:41.300Z,3132
2018-10-17T10:17:57.017Z,3128
2018-10-17T10:19:00.671Z,3124
2018-10-17T10:20:08.697Z,3120
2018-10-17T10:21:27.625Z,3120
2018-10-17T10:22:25.071Z,3116
2018-10-17T10:23:35.141Z,3116
2018-10-17T10:24:42.059Z,3116
2018-10-17T10:25:50.083Z,3112
2018-10-17T10:26:58.132Z,3104
2018-10-17T10:29:24.015Z,3100
2018-10-17T10:30:31.446Z,3100
2018-10-17T10:31:39.506Z,3100
2018-10-17T10:32:49.802Z,3104
2018-10-17T10:33:57.472Z,3104
2018-10-17T10:35:05.735Z,3104
2018-10-17T10:36:13.657Z,3104
2018-10-17T10:37:21.665Z,3100
2018-10-17T10:38:29.729Z,3092
2018-10-17T10:39:38.077Z,3088
2018-10-17T10:40:45.958Z,3092
2018-10-17T10:41:53.947Z,3088
2018-10-17T10:43:02.004Z,3088
2018-10-17T10:44:10.116Z,3088
2018-10-17T10:45:18.302Z,3092
2018-10-17T10:46:26.205Z,3084
2018-10-17T10:47:34.282Z,3080
2018-10-17T10:48:42.349Z,3092
2018-10-17T10:49:50.417Z,3088
2018-10-17T10:50:58.458Z,3088
2018-10-17T10:52:06.556Z,3092
2018-10-17T10:53:14.834Z,3092
2018-10-17T10:54:22.897Z,3084
2018-10-17T10:55:30.969Z,3084
2018-10-17T10:56:39.018Z,3080
2018-10-17T10:57:47.091Z,3080
2018-10-17T10:58:55.228Z,3076
2018-10-17T11:00:03.286Z,3076
2018-10-17T11:01:11.308Z,3072
2018-10-17T11:02:19.363Z,3064
2018-10-17T11:03:27.453Z,3060
2018-10-17T11:04:35.508Z,3060
2018-10-17T11:05:43.826Z,3056
2018-10-17T11:06:51.654Z,3056
2018-10-17T11:07:59.735Z,3052
2018-10-17T11:09:07.793Z,3056
2018-10-17T11:10:15.847Z,3056
2018-10-17T11:11:23.922Z,3048
2018-10-17T11:12:31.991Z,3048
2018-10-17T11:13:40.061Z,3044
2018-10-17T11:14:48.188Z,3040
2018-10-17T11:15:56.190Z,3036
2018-10-17T11:17:04.316Z,3040
2018-10-17T11:18:12.340Z,3036
2018-10-17T11:19:33.146Z,3028
2018-10-17T11:20:30.681Z,3024
2018-10-17T11:21:38.932Z,3016
2018-10-17T11:22:47.045Z,3020
2018-10-17T11:23:55.099Z,3020
2018-10-17T11:25:03.172Z,3028
2018-10-17T11:26:11.238Z,3028
2018-10-17T11:27:19.480Z,3024
2018-10-17T11:28:27.365Z,3028
2018-10-17T11:29:35.450Z,3032
2018-10-17T11:30:43.512Z,3040
2018-10-17T11:31:51.652Z,3040
2018-10-17T11:32:59.659Z,3060
2018-10-17T11:34:07.719Z,3064
2018-10-17T11:35:15.939Z,3052
2018-10-17T11:36:23.861Z,3056
2018-10-17T11:37:32.010Z,3044
2018-10-17T11:38:39.981Z,3012
2018-10-17T11:39:48.049Z,2992
2018-10-17T11:40:56.219Z,2996
2018-10-17T11:42:05.011Z,2980
2018-10-17T11:43:13.081Z,2976
2018-10-17T11:44:21.207Z,2992
2018-10-17T11:45:29.215Z,2976
2018-10-17T11:46:37.283Z,3000
2018-10-17T11:47:45.413Z,2988
2018-10-17T11:48:53.411Z,2972
2018-10-17T11:50:01.496Z,3012
2018-10-17T11:51:09.582Z,3020
2018-10-17T11:52:17.645Z,3024
2018-10-17T11:53:30.685Z,3020
2018-10-17T11:54:37.991Z,3024
2018-10-17T11:55:46.065Z,3032
2018-10-17T11:56:54.198Z,3032
2018-10-17T11:58:02.211Z,3028
2018-10-17T11:59:10.319Z,3040
2018-10-17T12:00:18.318Z,3048
2018-10-17T12:01:26.404Z,3052
2018-10-17T12:02:34.495Z,3060
2018-10-17T12:03:42.684Z,3068
2018-10-17T12:04:50.745Z,3072
2018-10-17T12:05:58.747Z,3068
2018-10-17T12:07:06.758Z,2944
2018-10-17T12:08:14.836Z,2808
2018-10-17T12:09:22.895Z,2784
2018-10-17T12:10:30.968Z,2760
2018-10-17T12:11:39.112Z,2788
2018-10-17T12:12:47.107Z,2736
2018-10-17T12:13:55.172Z,2628
2018-10-17T12:15:03.241Z,2636
2018-10-17T12:16:11.307Z,2692
2018-10-17T12:17:19.389Z,2712
2018-10-17T12:18:27.448Z,2844
2018-10-17T12:19:35.560Z,2848
2018-10-17T12:20:43.644Z,2840
2018-10-17T12:21:51.653Z,2852
2018-10-17T12:22:59.726Z,2860
2018-10-17T12:24:07.849Z,2844
2018-10-17T12:25:15.868Z,2820
2018-10-17T12:26:23.947Z,2808
2018-10-17T12:27:32.013Z,2756
2018-10-17T12:28:40.144Z,2724
2018-10-17T12:29:48.139Z,2572
2018-10-17T12:30:56.216Z,2580
2018-10-17T12:32:04.287Z,2604
2018-10-17T12:33:12.429Z,2592
2018-10-17T12:34:20.421Z,2612
2018-10-17T12:35:28.479Z,2688
2018-10-17T12:36:36.557Z,2720
2018-10-17T12:37:44.617Z,2700
2018-10-17T12:38:52.775Z,2668
2018-10-17T12:40:00.789Z,2668
2018-10-17T12:41:09.073Z,2692
2018-10-17T12:42:16.903Z,2676
2018-10-17T12:43:24.970Z,2684
2018-10-17T12:44:33.036Z,2660
2018-10-17T12:45:41.230Z,2572
2018-10-17T12:46:49.182Z,2564
2018-10-17T12:47:57.260Z,2568
2018-10-17T12:49:05.332Z,2512
2018-10-17T12:50:13.458Z,2568
2018-10-17T12:51:21.445Z,2524
2018-10-17T12:52:29.616Z,2572
2018-10-17T12:53:37.703Z,2532
2018-10-17T12:54:45.668Z,2648
2018-10-17T12:55:53.728Z,2692
2018-10-17T12:57:01.798Z,2760
2018-10-17T12:58:09.873Z,2780
2018-10-17T12:59:18.051Z,2784
2018-10-17T13:00:26.005Z,2780
2018-10-17T13:01:34.081Z,2768
2018-10-17T13:02:42.146Z,2768
2018-10-17T13:03:50.212Z,2772
2018-10-17T13:04:58.273Z,2772
2018-10-17T13:06:06.367Z,2780
2018-10-17T13:07:14.563Z,2788
2018-10-17T13:08:22.501Z,2792
2018-10-17T13:09:30.576Z,2820
2018-10-17T13:10:38.605Z,2856
2018-10-17T13:11:46.697Z,2892
2018-10-17T13:12:54.776Z,2920
2018-10-17T13:14:02.851Z,2940
2018-10-17T13:15:11.015Z,2960
2018-10-17T13:16:18.956Z,2964
2018-10-17T13:17:27.053Z,2988
2018-10-17T13:18:35.110Z,2996
2018-10-17T13:19:43.186Z,2992
2018-10-17T13:20:51.263Z,2964
2018-10-17T13:21:59.330Z,2908
2018-10-17T13:23:10.265Z,2908
2018-10-17T13:24:18.066Z,2864
2018-10-17T13:25:26.155Z,2880
2018-10-17T13:26:34.214Z,2756
2018-10-17T13:27:42.287Z,2620
2018-10-17T13:28:50.367Z,2468
2018-10-17T13:29:58.402Z,2548
2018-10-17T13:31:06.591Z,2612
2018-10-17T13:32:14.572Z,2720
2018-10-17T13:33:22.632Z,2696
2018-10-17T13:34:30.699Z,2756
2018-10-17T13:35:38.743Z,2756
2018-10-17T13:36:46.851Z,2764
2018-10-17T13:37:54.913Z,2752
2018-10-17T13:39:02.981Z,2672
2018-10-17T13:41:25.580Z,2720
2018-10-17T13:42:33.649Z,2716
2018-10-17T13:43:48.010Z,2696
2018-10-17T13:44:51.222Z,2704
2018-10-17T13:45:57.879Z,2680
2018-10-17T13:47:05.994Z,2648
2018-10-17T13:48:14.003Z,2476
2018-10-17T13:49:22.222Z,2672
2018-10-17T13:50:30.130Z,2720
2018-10-17T13:51:38.174Z,2808
2018-10-17T13:52:46.273Z,2884
2018-10-17T13:53:57.025Z,2808
2018-10-17T13:55:05.043Z,2848
2018-10-17T13:56:13.099Z,2884
2018-10-17T13:57:22.162Z,2872
2018-10-17T13:58:30.281Z,2924
2018-10-17T13:59:38.304Z,2952
2018-10-17T14:00:46.373Z,3016
2018-10-17T14:01:54.444Z,3088
2018-10-17T14:03:02.512Z,3004
2018-10-17T14:04:10.636Z,2932
2018-10-17T14:05:18.611Z,2896
2018-10-17T14:06:26.717Z,2924
2018-10-17T14:07:34.775Z,2892
2018-10-17T14:08:42.861Z,2968
2018-10-17T14:09:50.917Z,3008
2018-10-17T14:10:58.968Z,2988
2018-10-17T14:12:07.080Z,3064
2018-10-17T14:13:15.165Z,3184
2018-10-17T14:14:23.198Z,3292
2018-10-17T14:15:31.268Z,3384
2018-10-17T14:16:39.341Z,3404
2018-10-17T14:17:47.405Z,3448
2018-10-17T14:18:55.474Z,3508
2018-10-17T14:20:03.527Z,3556
2018-10-17T14:21:11.731Z,3528
2018-10-17T14:22:19.680Z,3440
2018-10-17T14:23:27.825Z,3364
2018-10-17T14:24:35.811Z,3388
2018-10-17T14:25:43.883Z,3308
2018-10-17T14:26:51.990Z,3184
2018-10-17T14:28:00.033Z,3164
2018-10-17T14:29:08.081Z,3096
2018-10-17T14:30:16.184Z,3004
2018-10-17T14:31:24.223Z,2928
2018-10-17T14:32:32.313Z,2868
2018-10-17T14:33:40.362Z,2872
2018-10-17T14:34:48.404Z,2888
2018-10-17T14:35:56.659Z,2860
2018-10-17T14:37:04.571Z,2848
2018-10-17T14:38:12.667Z,2792
2018-10-17T14:39:20.760Z,2852
2018-10-17T14:40:28.789Z,2892
2018-10-17T14:41:36.855Z,2904
2018-10-17T14:42:44.912Z,2944
2018-10-17T14:43:53.181Z,2912
2018-10-17T14:45:01.068Z,2824
2018-10-17T14:46:09.113Z,2796
2018-10-17T14:47:17.197Z,2756
2018-10-17T14:48:25.257Z,2768
2018-10-17T14:49:33.321Z,2736
2018-10-17T14:50:41.390Z,2700
2018-10-17T14:51:49.454Z,2696
2018-10-17T14:52:57.551Z,2680
2018-10-17T14:54:05.611Z,2712
2018-10-17T14:55:13.684Z,2744
2018-10-17T14:56:21.769Z,2752
2018-10-17T14:57:29.809Z,2740
2018-10-17T14:58:37.868Z,2756
2018-10-17T14:59:45.946Z,2740
2018-10-17T15:00:54.001Z,2732
2018-10-17T15:02:02.083Z,2712
2018-10-17T15:03:10.315Z,2712
2018-10-17T15:04:18.196Z,2688
2018-10-17T15:05:26.294Z,2672
2018-10-17T15:06:34.359Z,2632
2018-10-17T15:07:42.426Z,2584
2018-10-17T15:08:50.495Z,2516
2018-10-17T15:09:58.566Z,2468
2018-10-17T15:11:06.819Z,2408
2018-10-17T15:12:14.711Z,2348
2018-10-17T15:13:22.769Z,2320
2018-10-17T15:14:30.849Z,2312
2018-10-17T15:15:38.886Z,2304
2018-10-17T15:16:47.055Z,2296
2018-10-17T15:17:55.075Z,2276
2018-10-17T15:19:03.123Z,2256
2018-10-17T15:20:11.178Z,2208
2018-10-17T15:21:19.349Z,2148
2018-10-17T15:22:27.320Z,2088
2018-10-17T15:23:35.383Z,2024
2018-10-17T15:24:43.528Z,1988
2018-10-17T15:25:51.523Z,1976
2018-10-17T15:26:59.603Z,1952
2018-10-17T15:28:07.649Z,1912
2018-10-17T15:29:15.729Z,1864
2018-10-17T15:30:23.790Z,1808
2018-10-17T15:31:31.888Z,1772
2018-10-17T15:32:39.931Z,1724
2018-10-17T15:33:48.004Z,1684
2018-10-17T15:34:56.073Z,1636
2018-10-17T15:36:04.146Z,1584
2018-10-17T15:37:12.200Z,1528
2018-10-17T15:38:20.280Z,1472
2018-10-17T15:39:28.347Z,1428
2018-10-17T15:40:36.410Z,1388
2018-10-17T15:41:44.483Z,1356
2018-10-17T15:42:52.549Z,1324
2018-10-17T15:44:00.614Z,1284
2018-10-17T15:45:08.763Z,1248
2018-10-17T15:46:16.755Z,1224
2018-10-17T15:47:29.186Z,1184
2018-10-17T15:48:32.889Z,1148
2018-10-17T15:49:44.273Z,1120
2018-10-17T15:50:51.461Z,1100
2018-10-17T15:53:16.976Z,1056
2018-10-17T15:54:24.945Z,1032
2018-10-17T15:55:32.992Z,1008
2018-10-17T15:56:47.325Z,988
2018-10-17T15:57:49.124Z,972
2018-10-17T15:58:57.184Z,960
2018-10-17T16:00:05.280Z,944
2018-10-17T16:01:13.433Z,928
2018-10-17T16:02:21.566Z,912
2018-10-17T16:03:29.455Z,900
2018-10-17T16:04:37.523Z,884
2018-10-17T16:05:45.603Z,864
2018-10-17T16:06:53.648Z,848
2018-10-17T16:08:01.758Z,824
2018-10-17T16:09:09.797Z,792
2018-10-17T16:10:17.870Z,760
2018-10-17T16:11:25.966Z,724
2018-10-17T16:12:34.015Z,692
2018-10-17T16:13:42.076Z,656
2018-10-17T16:14:50.137Z,620
2018-10-17T16:15:58.173Z,592
2018-10-17T16:17:06.357Z,564
2018-10-17T16:18:14.406Z,536
2018-10-17T16:19:22.400Z,504
2018-10-17T16:20:30.456Z,472
2018-10-17T16:21:38.493Z,440
2018-10-17T16:22:46.672Z,404
2018-10-17T16:23:54.708Z,368
2018-10-17T16:25:02.746Z,332
2018-10-17T16:26:10.838Z,296
2018-10-17T16:27:18.850Z,264
2018-10-17T16:28:26.944Z,232
2018-10-17T16:29:35.036Z,200
2018-10-17T16:30:43.163Z,180
2018-10-17T16:31:51.176Z,156
2018-10-17T16:32:59.247Z,144
2018-10-17T16:34:07.264Z,124
2018-10-17T16:35:15.327Z,108
2018-10-17T16:36:23.392Z,96
2018-10-17T16:37:31.466Z,84
2018-10-17T16:38:39.518Z,72
2018-10-17T16:39:47.594Z,64
2018-10-17T16:40:55.708Z,56
2018-10-17T16:42:03.788Z,52
2018-10-17T16:43:11.792Z,40
2018-10-17T16:44:19.931Z,32
2018-10-17T16:45:27.923Z,28
2018-10-17T16:46:35.990Z,20
2018-10-17T16:47:44.136Z,16
2018-10-17T16:48:52.115Z,16
2018-10-17T16:50:00.250Z,12
2018-10-17T16:51:08.240Z,12
2018-10-17T16:52:16.326Z,8
2018-10-17T16:53:24.396Z,4
2018-10-17T16:54:32.457Z,4
2018-10-17T16:55:40.513Z,0
2018-10-17T16:56:48.558Z,4
2018-10-17T16:57:56.647Z,0
2018-10-17T16:59:04.708Z,4
2018-10-17T17:00:12.881Z,4
2018-10-17T17:01:20.844Z,0
2018-10-17T17:02:28.982Z,0
2018-10-17T17:03:37.009Z,0
2018-10-17T17:04:45.037Z,0
2018-10-17T17:05:53.108Z,0
2018-10-17T17:07:01.169Z,0
2018-10-17T17:08:09.228Z,0
2018-10-17T17:09:17.384Z,0
2018-10-17T17:10:25.352Z,0
2018-10-17T17:11:33.429Z,0
2018-10-17T17:12:41.519Z,0
2018-10-17T17:13:49.543Z,0
2018-10-17T17:14:57.731Z,0
2018-10-17T17:16:05.730Z,0
2018-10-17T17:17:13.739Z,0
2018-10-17T17:18:21.812Z,0
2018-10-17T17:19:29.882Z,0
2018-10-17T17:20:37.949Z,0
2018-10-17T17:21:46.016Z,0
2018-10-17T17:22:54.261Z,0
2018-10-17T17:24:02.220Z,0
2018-10-17T17:25:10.190Z,0
2018-10-17T17:26:18.240Z,0
2018-10-17T17:27:26.331Z,0
2018-10-17T17:28:34.433Z,0
2018-10-17T17:29:42.492Z,0
2018-10-17T17:32:07.677Z,0
2018-10-17T17:33:17.023Z,0
2018-10-17T17:34:23.800Z,0
2018-10-17T17:35:31.862Z,0
2018-10-17T17:36:39.922Z,0
2018-10-17T17:37:48.165Z,0
2018-10-17T17:38:56.466Z,0
2018-10-17T17:40:04.313Z,0
2018-10-17T17:41:28.754Z,0
2018-10-17T17:42:36.842Z,0
2018-10-17T17:43:44.903Z,0
2018-10-17T17:44:52.973Z,0
2018-10-17T17:46:01.051Z,0
2018-10-17T17:47:09.091Z,0